createdAt,value
2022-08-05T00:01:35.886Z,101475.09
2022-08-05T00:04:18.757Z,101459.06
2022-08-05T00:06:51.705Z,101490.59
2022-08-05T00:09:20.545Z,101492.34
2022-08-05T00:11:56.146Z,101505.78
2022-08-05T00:14:31.395Z,101501.47
2022-08-05T00:17:01.919Z,101501.41
2022-08-05T00:19:33.217Z,101492.69
2022-08-05T00:22:11.343Z,101507.53
2022-08-05T00:24:42.536Z,101507.94
2022-08-05T00:27:16.554Z,101515.63
2022-08-05T00:29:45.492Z,101511.31
2022-08-05T00:32:15.363Z,101506.09
2022-08-05T00:35:05.064Z,101501.47
2022-08-05T00:37:53.454Z,101488.84
2022-08-05T00:40:27.828Z,101504.59
2022-08-05T00:42:59.255Z,101482.00
2022-08-05T00:45:42.756Z,101500.16
2022-08-05T00:48:13.853Z,101506.66
2022-08-05T00:50:47.228Z,101498.47
2022-08-05T00:54:01.431Z,101492.44
2022-08-05T00:56:07.930Z,101492.94
2022-08-05T00:58:37.043Z,101501.44
2022-08-05T01:01:08.960Z,101503.91
2022-08-05T01:03:38.039Z,101504.72
2022-08-05T01:06:11.418Z,101495.00
2022-08-05T01:08:44.296Z,101506.97
2022-08-05T01:11:22.621Z,101498.06
2022-08-05T01:14:15.585Z,101513.53
2022-08-05T01:16:50.728Z,101525.22
2022-08-05T01:19:55.992Z,101530.91
2022-08-05T01:22:40.242Z,101539.91
2022-08-05T01:25:55.481Z,101532.97
2022-08-05T01:28:34.471Z,101516.00
2022-08-05T01:31:11.444Z,101548.72
2022-08-05T01:33:49.309Z,101554.34
2022-08-05T01:36:28.134Z,101532.38
2022-08-05T01:39:00.273Z,101474.69
2022-08-05T01:41:36.266Z,101545.31
2022-08-05T01:44:11.310Z,101552.53
2022-08-05T01:46:46.249Z,101542.81
2022-08-05T01:49:24.119Z,101540.09
2022-08-05T01:51:58.669Z,101536.31
2022-08-05T01:54:33.694Z,101522.00
2022-08-05T01:58:13.575Z,101538.22
2022-08-05T02:00:11.982Z,101506.72
2022-08-05T02:02:51.176Z,101522.00
2022-08-05T02:05:24.013Z,101518.84
2022-08-05T02:08:01.404Z,101501.09
2022-08-05T02:10:37.046Z,101498.72
2022-08-05T02:13:16.100Z,101511.66
2022-08-05T02:15:51.991Z,101508.25
2022-08-05T02:18:33.208Z,101503.78
2022-08-05T02:21:13.227Z,101503.09
2022-08-05T02:23:47.588Z,101507.78
2022-08-05T02:26:26.648Z,101504.34
2022-08-05T02:28:58.174Z,101502.75
2022-08-05T02:31:34.768Z,101500.69
2022-08-05T02:34:09.886Z,101508.13
2022-08-05T02:36:44.046Z,101485.22
2022-08-05T02:39:13.827Z,101493.63
2022-08-05T02:42:00.714Z,101493.72
2022-08-05T02:44:32.082Z,101502.47
2022-08-05T02:47:02.056Z,101509.41
2022-08-05T02:49:37.754Z,101504.09
2022-08-05T02:52:30.278Z,101326.09
2022-08-05T02:55:02.059Z,101509.50
2022-08-05T02:58:12.349Z,101520.84
2022-08-05T03:00:25.333Z,101523.44
2022-08-05T03:02:59.253Z,101524.78
2022-08-05T03:06:56.225Z,101526.66
2022-08-05T03:08:27.090Z,101526.00
2022-08-05T03:11:55.351Z,101517.91
2022-08-05T03:13:52.069Z,101531.13
2022-08-05T03:16:31.654Z,101525.03
2022-08-05T03:19:01.607Z,101534.22
2022-08-05T03:21:41.379Z,101540.75
2022-08-05T03:24:18.354Z,101519.75
2022-08-05T03:26:58.851Z,101532.41
2022-08-05T03:29:45.705Z,101543.59
2022-08-05T03:32:16.998Z,101538.28
2022-08-05T03:34:51.009Z,101542.47
2022-08-05T03:37:21.410Z,101551.03
2022-08-05T03:39:58.699Z,101439.97
2022-08-05T03:42:28.910Z,101538.13
2022-08-05T03:44:57.651Z,101537.03
2022-08-05T03:47:30.344Z,101531.97
2022-08-05T03:50:00.615Z,101531.97
2022-08-05T03:54:59.064Z,101535.63
2022-08-05T03:55:52.782Z,101542.06
2022-08-05T03:58:21.955Z,101422.41
2022-08-05T04:01:01.826Z,101529.59
2022-08-05T04:03:38.053Z,101519.69
2022-08-05T04:06:08.961Z,101348.75
2022-08-05T04:08:38.426Z,101529.91
2022-08-05T04:11:09.954Z,101530.72
2022-08-05T04:13:50.949Z,101523.91
2022-08-05T04:16:25.254Z,101519.63
2022-08-05T04:18:58.107Z,101517.63
2022-08-05T04:22:10.284Z,101515.88
2022-08-05T04:24:22.684Z,101517.88
2022-08-05T04:26:51.575Z,101526.66
2022-08-05T04:29:19.977Z,101519.63
2022-08-05T04:31:49.581Z,101516.00
2022-08-05T04:34:32.706Z,101518.81
2022-08-05T04:37:04.842Z,101525.09
2022-08-05T04:39:35.327Z,101526.16
2022-08-05T04:42:04.166Z,101525.31
2022-08-05T04:44:32.470Z,101527.84
2022-08-05T04:47:08.853Z,101519.03
2022-08-05T04:50:03.059Z,101522.38
2022-08-05T04:52:38.294Z,101526.22
2022-08-05T04:55:15.028Z,101518.38
2022-08-05T04:57:47.893Z,101510.63
2022-08-05T05:00:23.521Z,101520.41
2022-08-05T05:02:52.701Z,101516.41
2022-08-05T05:05:28.323Z,101525.97
2022-08-05T05:08:03.578Z,101522.78
2022-08-05T05:10:34.308Z,101532.28
2022-08-05T05:13:04.060Z,101536.53
2022-08-05T05:15:56.633Z,101533.84
2022-08-05T05:18:33.107Z,101425.53
2022-08-05T05:21:03.603Z,101543.06
2022-08-05T05:24:02.372Z,101539.34
2022-08-05T05:26:28.477Z,101540.59
2022-08-05T05:29:02.335Z,101539.41
2022-08-05T05:34:02.068Z,101552.97
2022-08-05T05:36:31.835Z,101556.16
2022-08-05T05:39:03.761Z,101553.38
2022-08-05T05:41:40.931Z,101543.00
2022-08-05T05:44:37.007Z,101567.53
2022-08-05T05:47:04.466Z,101572.94
2022-08-05T05:49:41.733Z,101579.69
2022-08-05T05:52:12.996Z,101581.84
2022-08-05T05:54:56.152Z,101588.03
2022-08-05T05:57:24.490Z,101587.56
2022-08-05T06:00:14.471Z,101581.69
2022-08-05T06:02:43.465Z,101580.19
2022-08-05T06:05:16.742Z,101581.94
2022-08-05T06:07:57.854Z,101575.25
2022-08-05T06:10:36.694Z,101579.69
2022-08-05T06:13:06.417Z,101587.09
2022-08-05T06:16:28.474Z,101579.69
2022-08-05T06:18:31.314Z,101589.19
2022-08-05T06:21:01.056Z,101589.44
2022-08-05T06:23:32.111Z,101597.88
2022-08-05T06:26:21.322Z,101571.88
2022-08-05T06:28:52.267Z,101594.69
2022-08-05T06:31:21.926Z,101599.88
2022-08-05T06:34:07.858Z,101607.69
2022-08-05T06:36:56.910Z,101601.09
2022-08-05T06:39:27.118Z,101604.31
2022-08-05T06:41:58.633Z,101609.38
2022-08-05T06:44:27.533Z,101601.25
2022-08-05T06:46:56.331Z,101593.50
2022-08-05T06:50:00.130Z,101617.41
2022-08-05T06:52:37.104Z,101612.06
2022-08-05T06:55:02.367Z,101616.75
2022-08-05T06:57:57.464Z,101599.41
2022-08-05T07:00:22.459Z,101622.94
2022-08-05T07:02:54.327Z,101619.91
2022-08-05T07:05:36.869Z,101637.13
2022-08-05T07:08:10.712Z,101630.94
2022-08-05T07:10:52.746Z,101627.97
2022-08-05T07:13:58.357Z,101629.56
2022-08-05T07:17:58.837Z,101602.59
2022-08-05T07:22:28.389Z,101642.09
2022-08-05T07:24:59.853Z,101651.97
2022-08-05T07:27:58.151Z,101652.72
2022-08-05T07:30:33.130Z,101648.84
2022-08-05T07:33:08.794Z,101658.69
2022-08-05T07:36:04.264Z,101662.63
2022-08-05T07:38:34.099Z,101663.53
2022-08-05T07:42:09.648Z,101679.03
2022-08-05T07:43:56.544Z,101635.75
2022-08-05T07:46:29.180Z,101692.09
2022-08-05T07:49:05.471Z,101696.00
2022-08-05T07:51:48.984Z,101696.59
2022-08-05T07:54:30.821Z,101702.13
2022-08-05T07:57:22.835Z,101694.16
2022-08-05T07:59:51.998Z,101681.47
2022-08-05T08:02:30.829Z,101690.28
2022-08-05T08:05:00.140Z,101716.13
2022-08-05T08:07:39.291Z,101705.94
2022-08-05T08:10:20.622Z,101721.28
2022-08-05T08:12:49.950Z,101718.78
2022-08-05T08:15:18.418Z,101721.69
2022-08-05T08:18:14.385Z,101730.06
2022-08-05T08:21:02.389Z,101728.84
2022-08-05T08:24:01.160Z,101735.97
2022-08-05T08:26:26.728Z,101722.63
2022-08-05T08:29:22.255Z,101733.91
2022-08-05T08:31:48.626Z,101747.59
2022-08-05T08:34:30.412Z,101742.34
2022-08-05T08:37:05.240Z,101740.56
2022-08-05T08:39:37.505Z,101758.22
2022-08-05T08:42:27.543Z,101740.19
2022-08-05T08:45:23.263Z,101754.44
2022-08-05T08:48:11.865Z,101765.69
2022-08-05T08:51:03.584Z,101768.13
2022-08-05T08:53:38.010Z,101775.97
2022-08-05T08:56:12.835Z,101771.44
2022-08-05T08:58:47.458Z,101769.69
2022-08-05T09:01:18.265Z,101779.66
2022-08-05T09:03:54.316Z,101794.09
2022-08-05T09:06:28.260Z,101785.16
2022-08-05T09:09:01.359Z,101789.41
2022-08-05T09:11:53.472Z,101793.09
2022-08-05T09:14:57.233Z,101792.16
2022-08-05T09:17:39.871Z,101803.41
2022-08-05T09:20:02.575Z,101805.75
2022-08-05T09:23:18.887Z,101797.50
2022-08-05T09:26:00.819Z,101798.66
2022-08-05T09:28:34.043Z,101804.19
2022-08-05T09:31:22.682Z,101820.41
2022-08-05T09:33:59.610Z,101809.94
2022-08-05T09:36:45.915Z,101818.41
2022-08-05T09:39:39.137Z,101823.00
2022-08-05T09:42:22.991Z,101830.66
2022-08-05T09:44:56.461Z,101821.63
2022-08-05T09:47:36.523Z,101835.22
2022-08-05T09:50:37.577Z,101834.50
2022-08-05T09:53:09.161Z,101841.44
2022-08-05T09:55:56.748Z,101840.09
2022-08-05T09:58:29.235Z,101852.59
2022-08-05T10:01:01.163Z,101846.16
2022-08-05T10:03:56.922Z,101846.94
2022-08-05T10:06:21.359Z,101853.25
2022-08-05T10:08:53.704Z,101852.91
2022-08-05T10:11:24.051Z,101859.56
2022-08-05T10:13:59.719Z,101857.47
2022-08-05T10:16:38.039Z,101855.28
2022-08-05T10:19:23.516Z,101854.78
2022-08-05T10:22:29.513Z,101854.31
2022-08-05T10:24:58.651Z,101851.06
2022-08-05T10:28:09.062Z,101850.94
2022-08-05T10:31:20.916Z,101855.81
2022-08-05T10:33:14.529Z,101845.66
2022-08-05T10:35:44.392Z,101850.41
2022-08-05T10:38:14.792Z,101860.84
2022-08-05T10:40:55.184Z,101864.88
2022-08-05T10:43:38.423Z,101863.53
2022-08-05T10:46:10.769Z,101867.38
2022-08-05T10:48:57.849Z,101849.22
2022-08-05T10:51:48.600Z,101869.75
2022-08-05T10:54:56.151Z,101865.94
2022-08-05T10:57:29.436Z,101876.81
2022-08-05T11:00:19.136Z,101876.41
2022-08-05T11:03:23.498Z,101881.63
2022-08-05T11:06:15.031Z,101870.56
2022-08-05T11:09:32.285Z,101860.00
2022-08-05T11:12:50.385Z,101897.22
2022-08-05T11:15:23.937Z,101862.50
2022-08-05T11:18:30.246Z,101897.44
2022-08-05T11:21:02.909Z,101896.88
2022-08-05T11:24:02.807Z,101908.38
2022-08-05T11:26:33.535Z,101899.34
2022-08-05T11:29:06.811Z,101907.13
2022-08-05T11:31:58.871Z,101908.91
2022-08-05T11:34:51.804Z,101915.00
2022-08-05T11:38:28.839Z,101917.44
2022-08-05T11:41:12.943Z,101926.22
2022-08-05T11:44:04.551Z,101926.22
2022-08-05T11:46:37.716Z,101926.31
2022-08-05T11:49:10.208Z,101930.53
2022-08-05T11:51:44.320Z,101929.19
2022-08-05T11:54:33.094Z,101964.09
2022-08-05T11:57:07.907Z,101939.72
2022-08-05T11:59:50.144Z,101944.16
2022-08-05T12:02:29.812Z,101928.94
2022-08-05T12:05:07.360Z,101943.44
2022-08-05T12:08:09.138Z,101952.06
2022-08-05T12:10:38.517Z,101955.63
2022-08-05T12:13:16.488Z,101945.50
2022-08-05T12:15:49.829Z,101948.78
2022-08-05T12:18:32.816Z,101840.50
2022-08-05T12:21:13.514Z,101964.59
2022-08-05T12:23:54.643Z,101972.41
2022-08-05T12:26:23.966Z,101949.44
2022-08-05T12:28:52.700Z,101976.88
2022-08-05T12:31:23.162Z,101978.38
2022-08-05T12:34:01.460Z,101984.16
2022-08-05T12:36:33.035Z,101986.72
2022-08-05T12:39:01.993Z,101985.97
2022-08-05T12:41:36.117Z,101983.59
2022-08-05T12:44:28.666Z,101990.13
2022-08-05T12:47:02.769Z,101992.38
2022-08-05T12:50:04.464Z,102002.38
2022-08-05T12:52:38.740Z,101993.84
2022-08-05T12:55:22.661Z,102006.72
2022-08-05T12:58:49.932Z,102008.56
2022-08-05T13:02:03.363Z,102011.72
2022-08-05T13:03:35.219Z,102016.31
2022-08-05T13:06:16.170Z,102018.69
2022-08-05T13:08:51.987Z,102018.03
2022-08-05T13:11:35.046Z,102017.28
2022-08-05T13:14:36.224Z,102024.44
2022-08-05T13:17:11.138Z,101911.19
2022-08-05T13:19:51.055Z,102004.53
2022-08-05T13:22:28.446Z,102029.31
2022-08-05T13:25:05.703Z,102032.41
2022-08-05T13:27:39.737Z,101978.00
2022-08-05T13:30:33.618Z,102037.94
2022-08-05T13:33:01.254Z,102039.41
2022-08-05T13:35:47.005Z,102046.69
2022-08-05T13:38:30.583Z,102041.28
2022-08-05T13:41:04.747Z,102050.34
2022-08-05T13:43:45.550Z,102049.44
2022-08-05T13:47:01.778Z,102054.69
2022-08-05T13:49:12.599Z,102069.53
2022-08-05T13:51:46.087Z,102058.66
2022-08-05T13:54:20.961Z,102057.09
2022-08-05T13:56:55.367Z,102064.88
2022-08-05T13:59:27.190Z,102059.50
2022-08-05T14:02:00.979Z,102066.97
2022-08-05T14:05:03.321Z,102061.34
2022-08-05T14:07:59.871Z,102066.00
2022-08-05T14:10:28.696Z,101965.06
2022-08-05T14:13:00.817Z,102074.94
2022-08-05T14:16:07.194Z,102076.34
2022-08-05T14:18:23.386Z,102083.31
2022-08-05T14:20:54.910Z,102087.38
2022-08-05T14:23:25.694Z,102093.16
2022-08-05T14:25:58.578Z,102090.94
2022-08-05T14:28:29.875Z,102102.84
2022-08-05T14:30:59.538Z,102105.84
2022-08-05T14:33:56.468Z,102108.31
2022-08-05T14:36:20.506Z,102080.75
2022-08-05T14:38:50.487Z,102107.09
2022-08-05T14:41:19.308Z,102124.75
2022-08-05T14:44:00.146Z,102115.72
2022-08-05T14:46:35.022Z,102129.31
2022-08-05T14:49:08.085Z,102122.78
2022-08-05T14:51:38.027Z,102121.63
2022-08-05T14:54:29.958Z,102126.94
2022-08-05T14:56:56.291Z,102108.22
2022-08-05T14:59:29.484Z,102128.44
2022-08-05T15:02:03.792Z,102127.66
2022-08-05T15:04:45.038Z,102127.34
2022-08-05T15:08:11.470Z,102126.78
2022-08-05T15:10:09.836Z,102131.91
2022-08-05T15:12:57.993Z,102133.19
2022-08-05T15:15:55.678Z,102133.69
2022-08-05T15:18:17.539Z,102131.41
2022-08-05T15:20:46.158Z,102143.00
2022-08-05T15:23:14.807Z,102138.25
2022-08-05T15:25:52.265Z,102145.50
2022-08-05T15:28:26.958Z,102148.59
2022-08-05T15:30:57.630Z,102149.22
2022-08-05T15:34:04.449Z,102156.09
2022-08-05T15:36:17.754Z,102151.03
2022-08-05T15:40:42.646Z,102152.06
2022-08-05T15:41:57.451Z,102157.19
2022-08-05T15:44:29.955Z,102123.16
2022-08-05T15:47:03.644Z,102155.97
2022-08-05T15:49:48.077Z,102151.28
2022-08-05T15:52:29.571Z,102152.84
2022-08-05T15:55:15.564Z,102159.13
2022-08-05T15:57:45.928Z,102155.31
2022-08-05T16:00:26.321Z,102151.63
2022-08-05T16:03:02.588Z,102151.25
2022-08-05T16:05:31.702Z,102162.75
2022-08-05T16:08:00.198Z,102166.72
2022-08-05T16:10:28.631Z,102173.63
2022-08-05T16:12:57.650Z,102160.97
2022-08-05T16:15:32.641Z,102170.69
2022-08-05T16:18:04.406Z,102179.16
2022-08-05T16:20:37.647Z,102152.25
2022-08-05T16:23:08.509Z,102180.22
2022-08-05T16:25:37.739Z,102172.41
2022-08-05T16:28:09.530Z,102178.03
2022-08-05T16:30:38.882Z,102179.44
2022-08-05T16:33:11.261Z,102175.44
2022-08-05T16:35:42.331Z,102180.72
2022-08-05T16:38:24.534Z,102190.47
2022-08-05T16:40:59.848Z,102181.22
2022-08-05T16:43:32.210Z,102194.50
2022-08-05T16:46:23.723Z,102198.31
2022-08-05T16:48:53.468Z,102198.28
2022-08-05T16:51:24.223Z,102198.50
2022-08-05T16:54:05.613Z,102189.91
2022-08-05T16:56:41.711Z,102115.56
2022-08-05T16:59:11.885Z,102206.31
2022-08-05T17:01:54.365Z,102206.47
2022-08-05T17:04:27.811Z,102200.09
2022-08-05T17:07:00.897Z,102211.13
2022-08-05T17:09:31.011Z,102216.63
2022-08-05T17:12:22.723Z,102204.63
2022-08-05T17:15:09.299Z,102220.47
2022-08-05T17:17:42.173Z,102218.63
2022-08-05T17:20:14.840Z,102222.16
2022-08-05T17:22:45.489Z,102225.09
2022-08-05T17:25:39.252Z,102214.78
2022-08-05T17:28:09.804Z,102225.53
2022-08-05T17:30:42.758Z,102221.88
2022-08-05T17:33:21.271Z,102219.28
2022-08-05T17:36:09.075Z,102221.56
2022-08-05T17:38:39.881Z,102215.81
2022-08-05T17:41:22.977Z,102193.34
2022-08-05T17:43:57.330Z,102227.53
2022-08-05T17:46:26.267Z,102230.56
2022-08-05T17:48:55.284Z,102236.31
2022-08-05T17:51:25.287Z,102239.53
2022-08-05T17:53:55.103Z,102229.53
2022-08-05T17:56:23.610Z,102239.25
2022-08-05T17:58:56.977Z,102238.13
2022-08-05T18:01:25.766Z,102206.09
2022-08-05T18:03:59.099Z,102207.94
2022-08-05T18:06:34.507Z,102241.25
2022-08-05T18:09:03.645Z,102245.16
2022-08-05T18:11:32.969Z,102243.00
2022-08-05T18:14:06.540Z,102258.00
2022-08-05T18:16:51.219Z,102249.72
2022-08-05T18:19:22.942Z,102267.75
2022-08-05T18:22:07.251Z,102247.44
2022-08-05T18:24:39.485Z,102247.53
2022-08-05T18:27:12.357Z,102263.84
2022-08-05T18:29:41.560Z,102244.97
2022-08-05T18:32:27.796Z,102263.25
2022-08-05T18:34:57.203Z,102262.75
2022-08-05T18:37:33.607Z,102270.09
2022-08-05T18:41:50.074Z,102238.88
2022-08-05T18:42:58.693Z,102263.97
2022-08-05T18:45:40.988Z,102266.72
2022-08-05T18:48:11.267Z,102268.06
2022-08-05T18:52:04.970Z,102280.53
2022-08-05T18:54:02.766Z,102260.53
2022-08-05T18:56:31.210Z,102277.94
2022-08-05T18:59:01.845Z,102273.31
2022-08-05T19:01:48.248Z,102273.31
2022-08-05T19:04:25.614Z,102276.06
2022-08-05T19:06:54.149Z,102273.19
2022-08-05T19:09:24.387Z,102286.59
2022-08-05T19:12:00.474Z,102289.09
2022-08-05T19:14:52.132Z,102292.50
2022-08-05T19:17:19.182Z,102291.66
2022-08-05T19:19:48.652Z,102291.06
2022-08-05T19:22:18.087Z,102292.47
2022-08-05T19:24:54.384Z,102296.53
2022-08-05T19:27:30.141Z,102305.78
2022-08-05T19:30:01.138Z,102293.56
2022-08-05T19:32:31.199Z,102304.94
2022-08-05T19:34:59.506Z,102307.91
2022-08-05T19:37:47.324Z,102309.88
2022-08-05T19:40:24.464Z,102301.78
2022-08-05T19:43:00.836Z,102310.47
2022-08-05T19:45:36.814Z,102313.16
2022-08-05T19:48:06.790Z,102239.88
2022-08-05T19:50:43.569Z,102319.56
2022-08-05T19:53:11.888Z,102317.69
2022-08-05T19:56:14.955Z,102324.22
2022-08-05T19:58:31.096Z,102322.06
2022-08-05T20:01:06.821Z,102333.78
2022-08-05T20:03:40.647Z,102319.81
2022-08-05T20:06:15.375Z,102340.50
2022-08-05T20:08:47.549Z,102343.03
2022-08-05T20:11:19.455Z,102336.19
2022-08-05T20:13:58.955Z,102347.78
2022-08-05T20:16:36.327Z,102315.22
2022-08-05T20:19:05.618Z,102362.47
2022-08-05T20:21:35.184Z,102351.59
2022-08-05T20:24:08.219Z,102360.25
2022-08-05T20:26:41.390Z,102336.59
2022-08-05T20:29:27.494Z,102359.66
2022-08-05T20:31:58.292Z,102363.38
2022-08-05T20:34:28.213Z,102370.69
2022-08-05T20:36:56.669Z,102356.47
2022-08-05T20:39:25.012Z,102375.25
2022-08-05T20:44:45.982Z,102377.84
2022-08-05T20:47:14.859Z,102388.00
2022-08-05T20:49:43.463Z,102378.22
2022-08-05T20:52:13.359Z,102383.56
2022-08-05T20:54:42.725Z,102388.22
2022-08-05T20:57:41.764Z,102340.00
2022-08-05T21:00:40.422Z,102384.44
2022-08-05T21:03:06.800Z,102384.38
2022-08-05T21:05:53.809Z,102386.97
2022-08-05T21:08:26.699Z,102304.72
2022-08-05T21:10:58.416Z,102379.25
2022-08-05T21:13:48.098Z,102397.88
2022-08-05T21:16:17.189Z,102392.59
2022-08-05T21:18:46.205Z,102384.84
2022-08-05T21:21:14.544Z,102379.91
2022-08-05T21:23:45.986Z,102388.78
2022-08-05T21:26:15.339Z,102389.03
2022-08-05T21:28:50.897Z,102389.47
2022-08-05T21:31:21.214Z,102376.41
2022-08-05T21:33:49.811Z,102334.44
2022-08-05T21:36:27.783Z,102392.97
2022-08-05T21:38:58.784Z,102395.13
2022-08-05T21:41:33.761Z,102395.59
2022-08-05T21:44:04.488Z,102371.59
2022-08-05T21:46:34.992Z,102405.28
2022-08-05T21:49:07.406Z,102392.88
2022-08-05T21:52:23.054Z,102274.94
2022-08-05T21:54:30.800Z,102411.72
2022-08-05T21:57:28.419Z,102375.16
2022-08-05T22:00:03.899Z,102396.44
2022-08-05T22:02:43.205Z,102409.81
2022-08-05T22:05:12.195Z,102410.66
2022-08-05T22:07:58.825Z,102409.84
2022-08-05T22:10:28.142Z,102385.94
2022-08-05T22:12:58.751Z,102412.50
2022-08-05T22:16:00.722Z,102416.13
2022-08-05T22:18:19.605Z,102415.25
2022-08-05T22:20:53.261Z,102416.97
2022-08-05T22:24:00.906Z,102419.53
2022-08-05T22:26:49.727Z,102411.41
2022-08-05T22:29:19.075Z,102367.16
2022-08-05T22:31:59.763Z,102416.84
2022-08-05T22:34:33.228Z,102423.97
2022-08-05T22:37:03.959Z,102407.09
2022-08-05T22:39:34.441Z,102417.78
2022-08-05T22:42:10.152Z,102417.00
2022-08-05T22:44:48.342Z,102421.44
2022-08-05T22:47:29.635Z,102415.16
2022-08-05T22:50:21.445Z,102430.34
2022-08-05T22:52:49.854Z,102331.81
2022-08-05T22:55:21.654Z,102345.28
2022-08-05T22:57:51.415Z,102450.16
2022-08-05T23:00:22.511Z,102443.19
2022-08-05T23:02:53.332Z,102429.09
2022-08-05T23:05:23.879Z,102448.69
2022-08-05T23:07:53.519Z,102459.34
2022-08-05T23:10:23.939Z,102455.78
2022-08-05T23:12:55.206Z,102453.13
2022-08-05T23:15:26.879Z,102395.50
2022-08-05T23:18:01.991Z,102373.31
2022-08-05T23:20:33.551Z,102447.91
2022-08-05T23:23:08.509Z,102462.09
2022-08-05T23:25:54.973Z,102390.19
2022-08-05T23:28:29.070Z,102465.69
2022-08-05T23:31:06.967Z,102462.16
2022-08-05T23:34:04.478Z,102477.25
2022-08-05T23:36:38.487Z,102480.75
2022-08-05T23:39:09.967Z,102475.44
2022-08-05T23:41:48.509Z,102474.56
2022-08-05T23:44:17.518Z,102462.19
2022-08-05T23:46:48.219Z,102473.75
2022-08-05T23:49:23.796Z,102482.66
2022-08-05T23:52:21.188Z,102495.25
2022-08-05T23:54:50.865Z,102490.81
2022-08-05T23:57:19.892Z,102496.19
